Clarkston, MI (48346)

04:47 EDT 25. Září 2016 (GMT -0400)
Rural St | | Change Station

Výška 1038 ft 42.70 °N, 83.40 °W | Updated 3 seconds ago

Clear
Jasno
46.0 °F
Pocit jako 46 °F
S
0.0
Vítr proměnlivý Vítr od VSV
Gusts 0.0 mil/h

Dnes
Vysoké -- | Nízké -- °F
--% Možnost srážek
Včera
Vysoké -- | Nízké -- °F
Precip. -- inčů
Tlak 30.21 inčů
Viditelnost 10.0 mílí
Zataženo Jasno
Ochlazování větrem 46 °F
Rosný bod 45 °F
Vlhkost 96%
Dešťové srážky 0.00 inčů
Sněhová pokrývka Není k dispozici
7:24 AM 7:24 PM
Ubývající srpek, 29% visible
METAR KPTK 250753Z AUTO 00000KT 10SM CLR 09/07 A3021 RMK AO2 SLP230 T00890067
Tlak 30.21 inčů
Viditelnost 10.0 mílí
Zataženo Jasno
Ochlazování větrem 46 °F
Rosný bod 45 °F
Vlhkost 96%
Dešťové srážky 0.00 inčů
Sněhová pokrývka Není k dispozici
7:24 AM 7:24 PM
Ubývající srpek, 29% visible
METAR KPTK 250753Z AUTO 00000KT 10SM CLR 09/07 A3021 RMK AO2 SLP230 T00890067

10-Day Weather Forecast

Almanac

Astronomie

Sep. 25, 2016 Východ Západ
Skutečný čas
Občanský soumrak
Námořní soumrak
Astronomický soumrak
Měsíc
Délka denního světla
Délka dne
Tomorrow will be .
, % of the Moon is Illuminated

Dnešní extrémy

State Highs State Lows

Community

WunderPhotos

Upload Photos

1,941,554 snímků staženo!

WunderBlog® & News

Nearby

Kvalita ovzduší

  Kvalita ovzduší Index kvality ovzduší Polutant
Not available.

Výška sněhu

Station Hloubka Nadmořská výška

Seizmická činnost

Město Distance Mag. Čas & datum
Minimální zobrazený rozsah je 2.5.

Pobřežní teplota vody

Lokalita Teplota

Stations

Poblíž povětrnostní stanice

Lokace stanice Tepl. Ochlazování větrem Rosný bod Vlhkost Vítr Precip. Výška Čas hlášení Typ
                   

Watches & Warnings

There are currently no watches in effect.